Ohshima Kazumaru — JD2908 — position and weather

sailwx.info

Track history (hours):
 
Tides and Currents Weather Stations Pressure Air Temp Water Temp Dewpoint Dewpoint Depression Visibility Wind Speed Wind Dir Waves Ship Positions

Ohshima Kazumaru

Last reported at 2017-Mar-25 21:33 UTC. Time now 2017-Mar-25 21:38 UTC.
Position N 35°32' E 139°47'.

Length 69 m; draft 4 m.

Type: Cargo ship. MMSI: 431000925.

Date/timePositionNaut miles runAvg speedWind from/ knotsBaromVisibWave heightAir tempDewpointWater temp
2017-Mar-25 21:33N 35°32' E 139°47'1 1.3
2017-Mar-25 20:34N 35°31' E 139°49'1 0.9
2017-Mar-25 19:31N 35°31' E 139°50'0 0.0
2017-Mar-25 18:33N 35°31' E 139°50'0 0.0
2017-Mar-25 17:34N 35°31' E 139°50'0 0.1
2017-Mar-25 16:34N 35°31' E 139°50'4 4.4
2017-Mar-25 15:34N 35°27' E 139°47'1211.5
2017-Mar-25 14:34N 35°15' E 139°47'  
2017-Mar-17 12:29N 34°59' E 139°29'1212.7
2017-Mar-17 11:33N 35°06' E 139°41'1111.5
2017-Mar-17 10:33N 35°17' E 139°45'1110.7
2017-Mar-17 09:34N 35°27' E 139°46'4 1.1
2017-Mar-17 05:21N 35°32' E 139°47'0 0.0
2017-Mar-17 04:25N 35°32' E 139°47'0 0.0
2017-Mar-17 01:03N 35°32' E 139°47'0 0.0
2017-Mar-17 00:27N 35°32' E 139°47'0 0.0
2017-Mar-16 23:33N 35°32' E 139°47'0 0.0
2017-Mar-16 22:32N 35°32' E 139°47'2 2.3
2017-Mar-16 21:34N 35°31' E 139°50'0 0.0
2017-Mar-16 20:34N 35°31' E 139°50'0 0.0
2017-Mar-16 19:33N 35°31' E 139°50'0 0.0
2017-Mar-16 18:34N 35°31' E 139°50'0 0.0
2017-Mar-16 17:33N 35°31' E 139°50'0 0.0
2017-Mar-16 16:33N 35°31' E 139°50'7 7.0
2017-Mar-16 15:34N 35°24' E 139°46'1010.0
2017-Mar-16 14:34N 35°14' E 139°47'1111.1
2017-Mar-16 13:33N 35°04' E 139°42'1212.0
2017-Mar-16 12:33N 34°56' E 139°31'  
Track history (hours):
 
Tides and Currents Weather Stations Pressure Air Temp Water Temp Dewpoint Dewpoint Depression Visibility Wind Speed Wind Dir Waves Ship Positions

Ohshima Kazumaru

Last reported at 2017-Mar-25 21:33 UTC. Time now 2017-Mar-25 21:38 UTC.
Position N 35°32' E 139°47'.

Length 69 m; draft 4 m.

Type: Cargo ship. MMSI: 431000925.

Date/timePositionNaut miles runAvg speedWind from/ knotsBaromVisibWave heightAir tempDewpointWater temp
2017-Mar-25 21:33N 35°32' E 139°47'1 1.3
2017-Mar-25 20:34N 35°31' E 139°49'1 0.9
2017-Mar-25 19:31N 35°31' E 139°50'0 0.0
2017-Mar-25 18:33N 35°31' E 139°50'0 0.0
2017-Mar-25 17:34N 35°31' E 139°50'0 0.1
2017-Mar-25 16:34N 35°31' E 139°50'4 4.4
2017-Mar-25 15:34N 35°27' E 139°47'1211.5
2017-Mar-25 14:34N 35°15' E 139°47'  
2017-Mar-17 12:29N 34°59' E 139°29'1212.7
2017-Mar-17 11:33N 35°06' E 139°41'1111.5
2017-Mar-17 10:33N 35°17' E 139°45'1110.7
2017-Mar-17 09:34N 35°27' E 139°46'4 1.1
2017-Mar-17 05:21N 35°32' E 139°47'0 0.0
2017-Mar-17 04:25N 35°32' E 139°47'0 0.0
2017-Mar-17 01:03N 35°32' E 139°47'0 0.0
2017-Mar-17 00:27N 35°32' E 139°47'0 0.0
2017-Mar-16 23:33N 35°32' E 139°47'0 0.0
2017-Mar-16 22:32N 35°32' E 139°47'2 2.3
2017-Mar-16 21:34N 35°31' E 139°50'0 0.0
2017-Mar-16 20:34N 35°31' E 139°50'0 0.0
2017-Mar-16 19:33N 35°31' E 139°50'0 0.0
2017-Mar-16 18:34N 35°31' E 139°50'0 0.0
2017-Mar-16 17:33N 35°31' E 139°50'0 0.0
2017-Mar-16 16:33N 35°31' E 139°50'7 7.0
2017-Mar-16 15:34N 35°24' E 139°46'1010.0
2017-Mar-16 14:34N 35°14' E 139°47'1111.1
2017-Mar-16 13:33N 35°04' E 139°42'1212.0
2017-Mar-16 12:33N 34°56' E 139°31'  

Dump ship's entire track history